A- A+ FrançaisEnglishEspañol中国

Services sur Internet Soldes sur Internet Des idées de cadeaux Météo Météo aéro

La météo à : Autours de vous Aurillac Tarbes-Lourdes-PyrénéesAngouleme-Brie-Champniers Chauvigny

La météo aéronautique pour les pilotes, la préparation du vol avec les METAR (METeorological Aerodrome Report, message d'observation des conditions météorologiques pour l'aviation) et Les TAF (Terminal Aerodrome Forecast : message de prévision à court terme des conditions météorologiques pour l'aviation). Et les autres ressources comme les VAC (Visual Approch Chart) et les NOTAM (Notice To Airman) pour préprer les vols.

Aéroport Humberside (Royaume-Uni) / OACI EGNJ/ IATA HUY

L'altitude de l'aéroport Humberside est de 37 m = 121 ft. Il est situé à proximité de Grimsby (Royaume-Uni). La météo générale à 5 jours est disponible pour Kirmington situé à 1.8 km.

METAR de l'aéroport Humberside - EGNJ

EGNJ 061450Z 24014KT 9999 -SHRA FEW018 FEW023CB BKN030 11/09 Q0996

Décodage du METAR de l'aéroport Humberside (GB)

METAR émis par EGNJ le vendredi 6 décembre 2019 à 14:50 heure TU, il y a 25 minutes.

La visibilité est de supérieure à 10 km = supérieure à 6.2 sm.

La température est de 11°C = 52 °F et le point rosée est de 9°C = 48 °F . Ce qui correspond à 87% d'humidité relative.

Le QNH est de 996 hPa = 29.41 inHg

Vent de 14 kt = 26 km/h, orienté à 240°.

Nuages : Quelques nuages à 1800 ft = 550 mètres. Quelques nuages à 2300 ft = 700 mètres. Couverture nuageuse fragmentée à 3000 ft = 910 mètres.

-SHRA

TAF de l'aéroport Humberside - EGNJ

EGNJ 050807Z 0509/0518 20014KT 2000 BR FEW020 BECMG 0509/0511 9999 NSW TEMPO 0510/0515 20017G27KT BECMG 0515/0518 20020G32KT PROB40 TEMPO 0516/0518 BKN014

EGNJ 050807Z 0509/0518 20014KT 2000 brume quelques nuages à 020 devenant 0509/0511 9999 NSW temporairement 0510/0515 20017G27KT devenant 0515/0518 20020G32KT probabilité de 40% d'avoir temporairement 0516/0518 couverture nuageuse fragmentée à 014

Aéroport à proximité de Humberside

Météo générale à 5 jours à Kirmington (1.8 km)Aéroport Wickenby (29 km)Aéroport Sturgate (31 km)Aéroport Scampton (32 km)Aéroport Sandtoft (34 km)Aéroport Beverley (36 km)Aéroport Strubby Hel (45 km)

Vue aérienne de l'aéroport Humberside

NOTAM de l'aéroport Humberside

Les NOTAM sont fournis sans aucune garantie de leur actualité. Le pilote est le seul responsable de la vérification de sa validité avant de l'utiliser opérationnellement pour préparer un vol ou l'utiliser lors de sa navigation.

Pas de NOTAM

Sources des données